This is the latest recevied weather packets stored in our database for station/object DK9HI-WX. If no packets are shown the sender has not sent any weather packets the latest 10 day(s).
| Time | Temp. | Humidity | Pressure | Rain* | Wind** | Luminosity | Snow |
|---|---|---|---|---|---|---|---|
| 1777130556 | 17.22° C | 42% | 1017.1 hPa | - | - | - | - |
| 1777129954 | 17.78° C | 43% | 1017.1 hPa | - | - | - | - |
| 1777129354 | 18.33° C | 41% | 1017.1 hPa | - | - | - | - |
| 1777128754 | 17.78° C | 42% | 1017.2 hPa | - | - | - | - |
| 1777128155 | 18.33° C | 41% | 1017.2 hPa | - | - | - | - |
| 1777127554 | 17.78° C | 43% | 1017.3 hPa | - | - | - | - |
| 1777126955 | 17.22° C | 44% | 1017.4 hPa | - | - | - | - |
| 1777126353 | 17.78° C | 44% | 1017.4 hPa | - | - | - | - |
| 1777125753 | 17.22° C | 44% | 1017.4 hPa | - | - | - | - |
| 1777125153 | 17.22° C | 45% | 1017.3 hPa | - | - | - | - |
| 1777124553 | 17.22° C | 45% | 1017.4 hPa | - | - | - | - |
| 1777123953 | 16.67° C | 49% | 1017.4 hPa | - | - | - | - |
| 1777123353 | 16.11° C | 50% | 1017.6 hPa | - | - | - | - |
| 1777122753 | 16.11° C | 51% | 1017.6 hPa | - | - | - | - |
| 1777122153 | 16.11° C | 51% | 1017.7 hPa | - | - | - | - |
| 1777121553 | 15.56° C | 52% | 1017.7 hPa | - | - | - | - |
| 1777120953 | 16.67° C | 49% | 1017.8 hPa | - | - | - | - |
| 1777120354 | 15.56° C | 54% | 1018 hPa | - | - | - | - |
| 1777119755 | 16.11° C | 52% | 1018 hPa | - | - | - | - |
| 1777119155 | 16.11° C | 51% | 1018.2 hPa | - | - | - | - |
| 1777118553 | 15° C | 58% | 1018.4 hPa | - | - | - | - |
| 1777117953 | 14.44° C | 58% | 1018.5 hPa | - | - | - | - |
| 1777117353 | 14.44° C | 58% | 1018.5 hPa | - | - | - | - |
| 1777116753 | 14.44° C | 59% | 1018.6 hPa | - | - | - | - |
| 1777116155 | 14.44° C | 59% | 1018.7 hPa | - | - | - | - |
* Rain since midnight (hover to see other rain measurements)
** Current wind speed in m/s (hover to see current wind gust speed)